sensor_id;sensor_type;location;lat;lon;timestamp;temperature;humidity
47765;DHT22;33529;49.242;8.670;2023-03-21T00:00:57;8.60;99.90
47765;DHT22;33529;49.242;8.670;2023-03-21T00:03:25;8.70;99.90
47765;DHT22;33529;49.242;8.670;2023-03-21T00:05:52;8.60;99.90
47765;DHT22;33529;49.242;8.670;2023-03-21T00:08:20;8.50;99.90
47765;DHT22;33529;49.242;8.670;2023-03-21T00:10:54;8.50;99.90
47765;DHT22;33529;49.242;8.670;2023-03-21T00:13:21;8.50;99.90
47765;DHT22;33529;49.242;8.670;2023-03-21T00:15:48;8.40;99.90
47765;DHT22;33529;49.242;8.670;2023-03-21T00:18:34;8.40;99.90
47765;DHT22;33529;49.242;8.670;2023-03-21T00:21:11;8.40;99.90
47765;DHT22;33529;49.242;8.670;2023-03-21T00:23:59;8.40;99.90
47765;DHT22;33529;49.242;8.670;2023-03-21T00:26:26;8.40;99.90
47765;DHT22;33529;49.242;8.670;2023-03-21T00:28:53;8.40;99.90
47765;DHT22;33529;49.242;8.670;2023-03-21T00:31:20;8.40;99.90
47765;DHT22;33529;49.242;8.670;2023-03-21T00:33:48;8.50;99.90
47765;DHT22;33529;49.242;8.670;2023-03-21T00:36:15;8.40;99.90
47765;DHT22;33529;49.242;8.670;2023-03-21T00:38:43;8.40;99.90
47765;DHT22;33529;49.242;8.670;2023-03-21T00:41:12;8.40;99.90
47765;DHT22;33529;49.242;8.670;2023-03-21T00:43:57;8.50;99.90
47765;DHT22;33529;49.242;8.670;2023-03-21T00:46:26;8.40;99.90
47765;DHT22;33529;49.242;8.670;2023-03-21T00:49:07;8.40;99.90
47765;DHT22;33529;49.242;8.670;2023-03-21T00:51:35;8.40;99.90
47765;DHT22;33529;49.242;8.670;2023-03-21T00:54:04;8.40;99.90
47765;DHT22;33529;49.242;8.670;2023-03-21T00:56:31;8.40;99.90
47765;DHT22;33529;49.242;8.670;2023-03-21T00:58:58;8.40;99.90
47765;DHT22;33529;49.242;8.670;2023-03-21T01:01:25;8.40;99.90
47765;DHT22;33529;49.242;8.670;2023-03-21T01:03:58;8.40;99.90
47765;DHT22;33529;49.242;8.670;2023-03-21T01:06:34;8.40;99.90
47765;DHT22;33529;49.242;8.670;2023-03-21T01:09:13;8.40;99.90
47765;DHT22;33529;49.242;8.670;2023-03-21T01:11:41;8.40;99.90
47765;DHT22;33529;49.242;8.670;2023-03-21T01:14:10;8.40;99.90
47765;DHT22;33529;49.242;8.670;2023-03-21T01:16:51;8.50;99.90
47765;DHT22;33529;49.242;8.670;2023-03-21T01:19:21;8.40;99.90
47765;DHT22;33529;49.242;8.670;2023-03-21T01:21:56;8.40;99.90
47765;DHT22;33529;49.242;8.670;2023-03-21T01:24:24;8.40;99.90
47765;DHT22;33529;49.242;8.670;2023-03-21T01:26:51;8.30;99.90
47765;DHT22;33529;49.242;8.670;2023-03-21T01:29:18;8.30;99.90
47765;DHT22;33529;49.242;8.670;2023-03-21T01:31:45;8.30;99.90
47765;DHT22;33529;49.242;8.670;2023-03-21T01:34:12;8.30;99.90
47765;DHT22;33529;49.242;8.670;2023-03-21T01:36:39;8.30;99.90
47765;DHT22;33529;49.242;8.670;2023-03-21T01:39:11;8.30;99.90
47765;DHT22;33529;49.242;8.670;2023-03-21T01:41:40;8.30;99.90
47765;DHT22;33529;49.242;8.670;2023-03-21T01:44:19;8.40;99.90
47765;DHT22;33529;49.242;8.670;2023-03-21T01:46:48;8.30;99.90
47765;DHT22;33529;49.242;8.670;2023-03-21T01:49:47;8.30;99.90
47765;DHT22;33529;49.242;8.670;2023-03-21T01:52:26;8.40;99.90
47765;DHT22;33529;49.242;8.670;2023-03-21T01:55:11;8.30;99.90
47765;DHT22;33529;49.242;8.670;2023-03-21T01:57:58;8.20;99.90
47765;DHT22;33529;49.242;8.670;2023-03-21T02:00:45;8.20;99.90
47765;DHT22;33529;49.242;8.670;2023-03-21T02:03:26;8.20;99.90
47765;DHT22;33529;49.242;8.670;2023-03-21T02:06:37;8.20;99.90
47765;DHT22;33529;49.242;8.670;2023-03-21T02:09:18;8.20;99.90
47765;DHT22;33529;49.242;8.670;2023-03-21T02:11:46;8.20;99.90
47765;DHT22;33529;49.242;8.670;2023-03-21T02:14:17;8.20;99.90
47765;DHT22;33529;49.242;8.670;2023-03-21T02:25:19;8.20;99.90
47765;DHT22;33529;49.242;8.670;2023-03-21T02:27:57;8.20;99.90
47765;DHT22;33529;49.242;8.670;2023-03-21T02:44:42;8.40;99.90
47765;DHT22;33529;49.242;8.670;2023-03-21T02:47:24;8.40;99.90
47765;DHT22;33529;49.242;8.670;2023-03-21T02:50:17;8.40;99.90
47765;DHT22;33529;49.242;8.670;2023-03-21T02:52:48;8.40;99.90
47765;DHT22;33529;49.242;8.670;2023-03-21T02:55:21;8.40;99.90
47765;DHT22;33529;49.242;8.670;2023-03-21T02:57:55;8.40;99.90
47765;DHT22;33529;49.242;8.670;2023-03-21T03:00:28;8.40;99.90
47765;DHT22;33529;49.242;8.670;2023-03-21T03:02:57;8.40;99.90
47765;DHT22;33529;49.242;8.670;2023-03-21T03:05:49;8.40;99.90
47765;DHT22;33529;49.242;8.670;2023-03-21T03:11:27;8.40;99.90
47765;DHT22;33529;49.242;8.670;2023-03-21T03:17:17;8.40;99.90
47765;DHT22;33529;49.242;8.670;2023-03-21T03:19:57;8.40;99.90
47765;DHT22;33529;49.242;8.670;2023-03-21T03:22:53;8.40;99.90
47765;DHT22;33529;49.242;8.670;2023-03-21T03:25:30;8.50;99.90
47765;DHT22;33529;49.242;8.670;2023-03-21T03:28:14;8.40;99.90
47765;DHT22;33529;49.242;8.670;2023-03-21T03:30:44;8.50;99.90
47765;DHT22;33529;49.242;8.670;2023-03-21T03:33:37;8.50;99.90
47765;DHT22;33529;49.242;8.670;2023-03-21T03:36:09;8.50;99.90
47765;DHT22;33529;49.242;8.670;2023-03-21T03:38:55;8.50;99.90
47765;DHT22;33529;49.242;8.670;2023-03-21T03:41:26;8.50;99.90
47765;DHT22;33529;49.242;8.670;2023-03-21T03:43:59;8.50;99.90
47765;DHT22;33529;49.242;8.670;2023-03-21T03:46:34;8.50;99.90
47765;DHT22;33529;49.242;8.670;2023-03-21T03:49:14;8.50;99.90
47765;DHT22;33529;49.242;8.670;2023-03-21T03:52:32;8.50;99.90
47765;DHT22;33529;49.242;8.670;2023-03-21T03:54:44;8.50;99.90
47765;DHT22;33529;49.242;8.670;2023-03-21T03:57:13;8.50;99.90
47765;DHT22;33529;49.242;8.670;2023-03-21T03:59:44;8.50;99.90
47765;DHT22;33529;49.242;8.670;2023-03-21T04:02:24;8.50;99.90
47765;DHT22;33529;49.242;8.670;2023-03-21T04:04:52;8.50;99.90
47765;DHT22;33529;49.242;8.670;2023-03-21T04:07:20;8.50;99.90
47765;DHT22;33529;49.242;8.670;2023-03-21T04:09:50;8.50;99.90
47765;DHT22;33529;49.242;8.670;2023-03-21T04:12:19;8.50;99.90
47765;DHT22;33529;49.242;8.670;2023-03-21T04:15:05;8.50;99.90
47765;DHT22;33529;49.242;8.670;2023-03-21T04:17:39;8.40;99.90
47765;DHT22;33529;49.242;8.670;2023-03-21T04:20:08;8.40;99.90
47765;DHT22;33529;49.242;8.670;2023-03-21T04:22:42;8.40;99.90
47765;DHT22;33529;49.242;8.670;2023-03-21T04:25:09;8.50;99.90
47765;DHT22;33529;49.242;8.670;2023-03-21T04:27:36;8.40;99.90
47765;DHT22;33529;49.242;8.670;2023-03-21T04:30:39;8.40;99.90
47765;DHT22;33529;49.242;8.670;2023-03-21T04:33:14;8.30;99.90
47765;DHT22;33529;49.242;8.670;2023-03-21T04:35:49;8.30;99.90
47765;DHT22;33529;49.242;8.670;2023-03-21T04:38:17;8.30;99.90
47765;DHT22;33529;49.242;8.670;2023-03-21T04:40:44;8.30;99.90
47765;DHT22;33529;49.242;8.670;2023-03-21T04:43:11;8.20;99.90
47765;DHT22;33529;49.242;8.670;2023-03-21T04:45:39;8.10;99.90
47765;DHT22;33529;49.242;8.670;2023-03-21T04:48:07;8.10;99.90
47765;DHT22;33529;49.242;8.670;2023-03-21T04:50:34;8.10;99.90
47765;DHT22;33529;49.242;8.670;2023-03-21T04:53:02;8.10;99.90
47765;DHT22;33529;49.242;8.670;2023-03-21T04:55:29;8.10;99.90
47765;DHT22;33529;49.242;8.670;2023-03-21T04:57:57;8.00;99.90
47765;DHT22;33529;49.242;8.670;2023-03-21T05:00:24;8.00;99.90
47765;DHT22;33529;49.242;8.670;2023-03-21T05:02:51;8.00;99.90
47765;DHT22;33529;49.242;8.670;2023-03-21T05:05:20;8.00;99.90
47765;DHT22;33529;49.242;8.670;2023-03-21T05:07:46;8.00;99.90
47765;DHT22;33529;49.242;8.670;2023-03-21T05:10:13;7.80;99.90
47765;DHT22;33529;49.242;8.670;2023-03-21T05:12:40;7.80;99.90
47765;DHT22;33529;49.242;8.670;2023-03-21T05:15:07;7.80;99.90
47765;DHT22;33529;49.242;8.670;2023-03-21T05:17:36;7.80;99.90
47765;DHT22;33529;49.242;8.670;2023-03-21T05:20:03;7.80;99.90
47765;DHT22;33529;49.242;8.670;2023-03-21T05:22:31;7.80;99.90
47765;DHT22;33529;49.242;8.670;2023-03-21T05:25:11;7.80;99.90
47765;DHT22;33529;49.242;8.670;2023-03-21T05:28:03;7.80;99.90
47765;DHT22;33529;49.242;8.670;2023-03-21T05:30:31;7.80;99.90
47765;DHT22;33529;49.242;8.670;2023-03-21T05:32:59;7.80;99.90
47765;DHT22;33529;49.242;8.670;2023-03-21T05:35:26;7.80;99.90
47765;DHT22;33529;49.242;8.670;2023-03-21T05:37:56;7.80;99.90
47765;DHT22;33529;49.242;8.670;2023-03-21T05:40:24;7.70;99.90
47765;DHT22;33529;49.242;8.670;2023-03-21T05:42:55;7.70;99.90
47765;DHT22;33529;49.242;8.670;2023-03-21T05:45:23;7.50;99.90
47765;DHT22;33529;49.242;8.670;2023-03-21T05:47:50;7.50;99.90
47765;DHT22;33529;49.242;8.670;2023-03-21T05:50:20;7.40;99.90
47765;DHT22;33529;49.242;8.670;2023-03-21T05:53:01;7.40;99.90
47765;DHT22;33529;49.242;8.670;2023-03-21T05:55:28;7.40;99.90
47765;DHT22;33529;49.242;8.670;2023-03-21T05:57:55;7.40;99.90
47765;DHT22;33529;49.242;8.670;2023-03-21T06:00:26;7.40;99.90
47765;DHT22;33529;49.242;8.670;2023-03-21T06:03:12;7.40;99.90
47765;DHT22;33529;49.242;8.670;2023-03-21T06:05:52;7.50;99.90
47765;DHT22;33529;49.242;8.670;2023-03-21T06:08:23;7.60;99.90
47765;DHT22;33529;49.242;8.670;2023-03-21T06:10:50;7.60;99.90
47765;DHT22;33529;49.242;8.670;2023-03-21T06:13:17;7.70;99.90
47765;DHT22;33529;49.242;8.670;2023-03-21T06:15:44;7.80;99.90
47765;DHT22;33529;49.242;8.670;2023-03-21T06:18:16;7.80;99.90
47765;DHT22;33529;49.242;8.670;2023-03-21T06:21:09;7.80;99.90
47765;DHT22;33529;49.242;8.670;2023-03-21T06:23:38;7.80;99.90
47765;DHT22;33529;49.242;8.670;2023-03-21T06:26:05;7.80;99.90
47765;DHT22;33529;49.242;8.670;2023-03-21T06:28:32;7.90;99.90
47765;DHT22;33529;49.242;8.670;2023-03-21T06:30:59;7.90;99.90
47765;DHT22;33529;49.242;8.670;2023-03-21T06:33:29;8.00;99.90
47765;DHT22;33529;49.242;8.670;2023-03-21T06:35:57;8.10;99.90
47765;DHT22;33529;49.242;8.670;2023-03-21T06:38:24;8.20;99.90
47765;DHT22;33529;49.242;8.670;2023-03-21T06:40:52;8.30;99.90
47765;DHT22;33529;49.242;8.670;2023-03-21T06:43:22;8.40;99.90
47765;DHT22;33529;49.242;8.670;2023-03-21T06:45:49;8.50;99.90
47765;DHT22;33529;49.242;8.670;2023-03-21T06:48:16;8.40;99.90
47765;DHT22;33529;49.242;8.670;2023-03-21T06:50:48;8.50;99.90
47765;DHT22;33529;49.242;8.670;2023-03-21T06:53:17;8.50;99.90
47765;DHT22;33529;49.242;8.670;2023-03-21T06:56:07;8.70;99.90
47765;DHT22;33529;49.242;8.670;2023-03-21T06:58:35;9.00;99.90
47765;DHT22;33529;49.242;8.670;2023-03-21T07:01:03;9.10;99.90
47765;DHT22;33529;49.242;8.670;2023-03-21T07:03:34;9.40;99.90
47765;DHT22;33529;49.242;8.670;2023-03-21T07:06:06;9.60;99.90
47765;DHT22;33529;49.242;8.670;2023-03-21T07:08:34;9.70;99.90
47765;DHT22;33529;49.242;8.670;2023-03-21T07:11:01;9.90;99.90
47765;DHT22;33529;49.242;8.670;2023-03-21T07:13:28;10.00;99.90
47765;DHT22;33529;49.242;8.670;2023-03-21T07:16:02;10.10;99.90
47765;DHT22;33529;49.242;8.670;2023-03-21T07:18:28;10.10;99.90
47765;DHT22;33529;49.242;8.670;2023-03-21T07:20:57;10.10;99.90
47765;DHT22;33529;49.242;8.670;2023-03-21T07:23:25;10.20;99.90
47765;DHT22;33529;49.242;8.670;2023-03-21T07:25:53;10.20;99.90
47765;DHT22;33529;49.242;8.670;2023-03-21T07:28:22;10.30;99.90
47765;DHT22;33529;49.242;8.670;2023-03-21T07:30:55;10.40;99.90
47765;DHT22;33529;49.242;8.670;2023-03-21T07:33:23;10.60;99.90
47765;DHT22;33529;49.242;8.670;2023-03-21T07:35:52;10.70;99.90
47765;DHT22;33529;49.242;8.670;2023-03-21T07:38:20;10.70;99.90
47765;DHT22;33529;49.242;8.670;2023-03-21T07:40:48;10.70;99.90
47765;DHT22;33529;49.242;8.670;2023-03-21T07:43:16;10.80;99.90
47765;DHT22;33529;49.242;8.670;2023-03-21T07:45:53;10.90;99.90
47765;DHT22;33529;49.242;8.670;2023-03-21T07:48:21;10.90;99.90
47765;DHT22;33529;49.242;8.670;2023-03-21T07:50:48;11.00;99.90
47765;DHT22;33529;49.242;8.670;2023-03-21T07:53:16;11.10;99.90
47765;DHT22;33529;49.242;8.670;2023-03-21T07:55:42;11.30;99.90
47765;DHT22;33529;49.242;8.670;2023-03-21T07:58:09;11.40;99.90
47765;DHT22;33529;49.242;8.670;2023-03-21T08:00:36;11.40;99.90
47765;DHT22;33529;49.242;8.670;2023-03-21T08:03:04;11.60;99.90
47765;DHT22;33529;49.242;8.670;2023-03-21T08:05:35;11.70;99.90
47765;DHT22;33529;49.242;8.670;2023-03-21T08:08:04;11.90;99.90
47765;DHT22;33529;49.242;8.670;2023-03-21T08:10:31;12.00;99.90
47765;DHT22;33529;49.242;8.670;2023-03-21T08:12:58;12.10;99.90
47765;DHT22;33529;49.242;8.670;2023-03-21T08:15:25;12.20;99.90
47765;DHT22;33529;49.242;8.670;2023-03-21T08:17:52;12.50;99.90
47765;DHT22;33529;49.242;8.670;2023-03-21T08:20:20;12.50;99.90
47765;DHT22;33529;49.242;8.670;2023-03-21T08:22:48;12.70;99.90
47765;DHT22;33529;49.242;8.670;2023-03-21T08:25:16;12.80;99.90
47765;DHT22;33529;49.242;8.670;2023-03-21T08:27:44;12.90;99.90
47765;DHT22;33529;49.242;8.670;2023-03-21T08:30:15;13.10;99.90
47765;DHT22;33529;49.242;8.670;2023-03-21T08:32:43;13.10;99.90
47765;DHT22;33529;49.242;8.670;2023-03-21T08:35:11;13.30;99.90
47765;DHT22;33529;49.242;8.670;2023-03-21T08:37:39;13.60;99.90
47765;DHT22;33529;49.242;8.670;2023-03-21T08:40:09;13.70;99.90
47765;DHT22;33529;49.242;8.670;2023-03-21T08:42:37;13.80;99.90
47765;DHT22;33529;49.242;8.670;2023-03-21T08:45:05;13.80;99.90
47765;DHT22;33529;49.242;8.670;2023-03-21T08:47:32;14.00;99.90
47765;DHT22;33529;49.242;8.670;2023-03-21T08:49:59;13.90;99.90
47765;DHT22;33529;49.242;8.670;2023-03-21T08:52:26;13.90;99.90
47765;DHT22;33529;49.242;8.670;2023-03-21T08:54:53;13.90;99.90
47765;DHT22;33529;49.242;8.670;2023-03-21T08:57:20;13.90;99.90
47765;DHT22;33529;49.242;8.670;2023-03-21T08:59:47;14.00;99.90
47765;DHT22;33529;49.242;8.670;2023-03-21T09:02:15;14.10;99.90
47765;DHT22;33529;49.242;8.670;2023-03-21T09:04:43;14.30;99.90
47765;DHT22;33529;49.242;8.670;2023-03-21T09:07:11;14.40;99.90
47765;DHT22;33529;49.242;8.670;2023-03-21T09:09:40;14.50;99.90
47765;DHT22;33529;49.242;8.670;2023-03-21T09:12:07;14.60;99.90
47765;DHT22;33529;49.242;8.670;2023-03-21T09:14:34;14.70;99.90
47765;DHT22;33529;49.242;8.670;2023-03-21T09:17:01;14.90;99.90
47765;DHT22;33529;49.242;8.670;2023-03-21T09:19:28;15.00;99.90
47765;DHT22;33529;49.242;8.670;2023-03-21T09:21:55;14.90;99.90
47765;DHT22;33529;49.242;8.670;2023-03-21T09:24:23;14.80;99.90
47765;DHT22;33529;49.242;8.670;2023-03-21T09:26:50;14.80;99.90
47765;DHT22;33529;49.242;8.670;2023-03-21T09:29:17;15.00;99.90
47765;DHT22;33529;49.242;8.670;2023-03-21T09:31:46;15.00;99.90
47765;DHT22;33529;49.242;8.670;2023-03-21T09:34:16;15.20;99.90
47765;DHT22;33529;49.242;8.670;2023-03-21T09:36:43;15.10;99.90
47765;DHT22;33529;49.242;8.670;2023-03-21T09:39:10;15.10;99.90
47765;DHT22;33529;49.242;8.670;2023-03-21T09:44:53;15.30;99.90
47765;DHT22;33529;49.242;8.670;2023-03-21T09:47:24;15.40;99.90
47765;DHT22;33529;49.242;8.670;2023-03-21T09:49:59;15.50;99.90
47765;DHT22;33529;49.242;8.670;2023-03-21T09:52:47;15.50;99.90
47765;DHT22;33529;49.242;8.670;2023-03-21T09:55:19;15.40;99.90
47765;DHT22;33529;49.242;8.670;2023-03-21T09:57:54;15.30;99.90
47765;DHT22;33529;49.242;8.670;2023-03-21T10:00:29;15.30;99.90
47765;DHT22;33529;49.242;8.670;2023-03-21T10:03:03;15.40;99.90
47765;DHT22;33529;49.242;8.670;2023-03-21T10:05:33;15.30;99.90
47765;DHT22;33529;49.242;8.670;2023-03-21T10:08:15;15.20;99.90
47765;DHT22;33529;49.242;8.670;2023-03-21T10:10:54;15.30;99.90
47765;DHT22;33529;49.242;8.670;2023-03-21T10:13:25;15.30;99.90
47765;DHT22;33529;49.242;8.670;2023-03-21T10:15:59;15.30;99.90
47765;DHT22;33529;49.242;8.670;2023-03-21T10:18:29;15.30;99.90
47765;DHT22;33529;49.242;8.670;2023-03-21T10:20:56;15.50;99.90
47765;DHT22;33529;49.242;8.670;2023-03-21T10:23:26;15.50;99.90
47765;DHT22;33529;49.242;8.670;2023-03-21T10:25:59;15.80;99.90
47765;DHT22;33529;49.242;8.670;2023-03-21T10:28:31;15.80;99.90
47765;DHT22;33529;49.242;8.670;2023-03-21T10:31:18;15.90;99.90
47765;DHT22;33529;49.242;8.670;2023-03-21T10:33:48;15.70;99.90
47765;DHT22;33529;49.242;8.670;2023-03-21T10:36:19;15.60;99.30
47765;DHT22;33529;49.242;8.670;2023-03-21T10:38:52;15.20;99.90
47765;DHT22;33529;49.242;8.670;2023-03-21T10:41:19;15.20;99.90
47765;DHT22;33529;49.242;8.670;2023-03-21T10:44:12;15.20;99.90
47765;DHT22;33529;49.242;8.670;2023-03-21T10:46:57;15.40;99.90
47765;DHT22;33529;49.242;8.670;2023-03-21T10:49:24;15.10;99.90
47765;DHT22;33529;49.242;8.670;2023-03-21T10:51:57;15.40;99.90
47765;DHT22;33529;49.242;8.670;2023-03-21T10:54:28;15.30;99.90
47765;DHT22;33529;49.242;8.670;2023-03-21T10:57:02;15.30;99.90
47765;DHT22;33529;49.242;8.670;2023-03-21T10:59:45;15.50;99.90
47765;DHT22;33529;49.242;8.670;2023-03-21T11:02:19;15.50;99.90
47765;DHT22;33529;49.242;8.670;2023-03-21T11:04:51;15.40;99.90
47765;DHT22;33529;49.242;8.670;2023-03-21T11:07:18;15.50;99.90
47765;DHT22;33529;49.242;8.670;2023-03-21T11:09:55;15.70;99.90
47765;DHT22;33529;49.242;8.670;2023-03-21T11:12:36;15.60;99.90
47765;DHT22;33529;49.242;8.670;2023-03-21T11:15:41;15.60;99.90
47765;DHT22;33529;49.242;8.670;2023-03-21T11:18:26;15.70;99.90
47765;DHT22;33529;49.242;8.670;2023-03-21T11:20:55;15.90;99.90
47765;DHT22;33529;49.242;8.670;2023-03-21T11:23:26;15.90;99.90
47765;DHT22;33529;49.242;8.670;2023-03-21T11:25:54;16.10;99.90
47765;DHT22;33529;49.242;8.670;2023-03-21T11:28:24;16.10;99.90
47765;DHT22;33529;49.242;8.670;2023-03-21T11:30:53;15.90;99.90
47765;DHT22;33529;49.242;8.670;2023-03-21T11:33:25;16.00;99.90
47765;DHT22;33529;49.242;8.670;2023-03-21T11:36:07;15.90;99.90
47765;DHT22;33529;49.242;8.670;2023-03-21T11:38:49;15.70;99.90
47765;DHT22;33529;49.242;8.670;2023-03-21T11:41:29;15.60;99.90
47765;DHT22;33529;49.242;8.670;2023-03-21T11:43:57;15.60;99.90
47765;DHT22;33529;49.242;8.670;2023-03-21T11:46:27;15.70;99.90
47765;DHT22;33529;49.242;8.670;2023-03-21T11:48:56;15.80;99.90
47765;DHT22;33529;49.242;8.670;2023-03-21T11:51:33;15.80;99.90
47765;DHT22;33529;49.242;8.670;2023-03-21T11:54:16;16.00;99.90
47765;DHT22;33529;49.242;8.670;2023-03-21T11:56:53;16.20;99.90
47765;DHT22;33529;49.242;8.670;2023-03-21T11:59:37;16.50;99.90
47765;DHT22;33529;49.242;8.670;2023-03-21T12:02:45;16.80;98.40
47765;DHT22;33529;49.242;8.670;2023-03-21T12:05:33;16.90;97.30
47765;DHT22;33529;49.242;8.670;2023-03-21T12:11:28;16.40;98.70
47765;DHT22;33529;49.242;8.670;2023-03-21T12:14:19;16.40;97.20
47765;DHT22;33529;49.242;8.670;2023-03-21T12:17:11;16.60;99.90
47765;DHT22;33529;49.242;8.670;2023-03-21T12:20:08;16.90;99.00
47765;DHT22;33529;49.242;8.670;2023-03-21T12:22:55;17.00;97.10
47765;DHT22;33529;49.242;8.670;2023-03-21T12:26:16;17.00;98.60
47765;DHT22;33529;49.242;8.670;2023-03-21T12:28:59;16.80;99.00
47765;DHT22;33529;49.242;8.670;2023-03-21T12:37:49;16.80;97.80
47765;DHT22;33529;49.242;8.670;2023-03-21T12:43:38;17.10;97.00
47765;DHT22;33529;49.242;8.670;2023-03-21T12:46:21;17.20;99.70
47765;DHT22;33529;49.242;8.670;2023-03-21T12:49:05;17.10;98.10
47765;DHT22;33529;49.242;8.670;2023-03-21T12:51:42;17.30;97.60
47765;DHT22;33529;49.242;8.670;2023-03-21T12:57:05;17.40;98.50
47765;DHT22;33529;49.242;8.670;2023-03-21T13:02:33;17.50;96.50
47765;DHT22;33529;49.242;8.670;2023-03-21T13:05:21;17.20;96.70
47765;DHT22;33529;49.242;8.670;2023-03-21T13:07:58;17.40;97.50
47765;DHT22;33529;49.242;8.670;2023-03-21T13:10:26;17.50;95.70
47765;DHT22;33529;49.242;8.670;2023-03-21T13:13:32;17.30;97.90
47765;DHT22;33529;49.242;8.670;2023-03-21T13:18:38;17.40;95.60
47765;DHT22;33529;49.242;8.670;2023-03-21T13:21:22;17.30;96.70
47765;DHT22;33529;49.242;8.670;2023-03-21T13:26:40;17.40;97.70
47765;DHT22;33529;49.242;8.670;2023-03-21T13:29:30;17.50;96.50
47765;DHT22;33529;49.242;8.670;2023-03-21T13:32:15;17.40;97.10
47765;DHT22;33529;49.242;8.670;2023-03-21T13:34:43;17.40;96.60
47765;DHT22;33529;49.242;8.670;2023-03-21T13:37:14;17.20;96.40
47765;DHT22;33529;49.242;8.670;2023-03-21T13:39:45;17.10;96.30
47765;DHT22;33529;49.242;8.670;2023-03-21T13:42:28;17.30;96.30
47765;DHT22;33529;49.242;8.670;2023-03-21T13:45:00;17.20;97.40
47765;DHT22;33529;49.242;8.670;2023-03-21T13:50:35;17.10;96.90
47765;DHT22;33529;49.242;8.670;2023-03-21T13:55:44;17.60;97.10
47765;DHT22;33529;49.242;8.670;2023-03-21T13:58:32;17.50;96.60
47765;DHT22;33529;49.242;8.670;2023-03-21T14:03:48;17.40;97.80
47765;DHT22;33529;49.242;8.670;2023-03-21T14:06:16;17.20;97.80
47765;DHT22;33529;49.242;8.670;2023-03-21T14:08:46;17.20;96.40
47765;DHT22;33529;49.242;8.670;2023-03-21T14:11:18;17.20;95.90
47765;DHT22;33529;49.242;8.670;2023-03-21T14:13:46;17.20;96.50
47765;DHT22;33529;49.242;8.670;2023-03-21T14:16:18;17.30;95.30
47765;DHT22;33529;49.242;8.670;2023-03-21T14:18:54;17.30;96.80
47765;DHT22;33529;49.242;8.670;2023-03-21T14:21:27;17.10;95.00
47765;DHT22;33529;49.242;8.670;2023-03-21T14:24:00;17.20;95.60
47765;DHT22;33529;49.242;8.670;2023-03-21T14:26:31;17.30;96.70
47765;DHT22;33529;49.242;8.670;2023-03-21T14:29:03;17.10;94.50
47765;DHT22;33529;49.242;8.670;2023-03-21T14:31:38;17.00;94.70
47765;DHT22;33529;49.242;8.670;2023-03-21T14:34:05;16.80;95.30
47765;DHT22;33529;49.242;8.670;2023-03-21T14:36:38;16.70;95.80
47765;DHT22;33529;49.242;8.670;2023-03-21T14:39:13;16.50;94.30
47765;DHT22;33529;49.242;8.670;2023-03-21T14:41:50;16.60;95.30
47765;DHT22;33529;49.242;8.670;2023-03-21T14:44:24;16.70;93.90
47765;DHT22;33529;49.242;8.670;2023-03-21T14:47:03;16.70;94.90
47765;DHT22;33529;49.242;8.670;2023-03-21T14:49:33;16.80;95.70
47765;DHT22;33529;49.242;8.670;2023-03-21T14:52:06;16.70;95.20
47765;DHT22;33529;49.242;8.670;2023-03-21T14:54:33;16.80;96.40
47765;DHT22;33529;49.242;8.670;2023-03-21T14:57:06;16.90;95.90
47765;DHT22;33529;49.242;8.670;2023-03-21T14:59:37;16.90;94.20
47765;DHT22;33529;49.242;8.670;2023-03-21T15:02:15;16.80;94.00
47765;DHT22;33529;49.242;8.670;2023-03-21T15:04:44;16.60;95.40
47765;DHT22;33529;49.242;8.670;2023-03-21T15:07:27;16.50;93.60
47765;DHT22;33529;49.242;8.670;2023-03-21T15:09:57;16.30;94.50
47765;DHT22;33529;49.242;8.670;2023-03-21T15:12:24;16.30;94.50
47765;DHT22;33529;49.242;8.670;2023-03-21T15:14:51;16.30;95.00
47765;DHT22;33529;49.242;8.670;2023-03-21T15:17:18;16.40;95.40
47765;DHT22;33529;49.242;8.670;2023-03-21T15:19:45;16.30;94.40
47765;DHT22;33529;49.242;8.670;2023-03-21T15:22:35;16.30;94.30
47765;DHT22;33529;49.242;8.670;2023-03-21T15:25:07;16.10;93.70
47765;DHT22;33529;49.242;8.670;2023-03-21T15:27:39;16.00;94.20
47765;DHT22;33529;49.242;8.670;2023-03-21T15:30:14;16.10;95.70
47765;DHT22;33529;49.242;8.670;2023-03-21T15:32:44;15.90;93.60
47765;DHT22;33529;49.242;8.670;2023-03-21T15:35:17;15.70;94.50
47765;DHT22;33529;49.242;8.670;2023-03-21T15:37:52;15.70;98.70
47765;DHT22;33529;49.242;8.670;2023-03-21T15:40:29;15.70;96.70
47765;DHT22;33529;49.242;8.670;2023-03-21T15:43:16;15.70;97.30
47765;DHT22;33529;49.242;8.670;2023-03-21T15:45:52;15.50;99.80
47765;DHT22;33529;49.242;8.670;2023-03-21T15:48:26;15.50;99.80
47765;DHT22;33529;49.242;8.670;2023-03-21T15:51:01;15.40;99.90
47765;DHT22;33529;49.242;8.670;2023-03-21T15:53:32;15.40;99.90
47765;DHT22;33529;49.242;8.670;2023-03-21T15:56:01;15.30;99.90
47765;DHT22;33529;49.242;8.670;2023-03-21T15:58:39;15.30;99.20
47765;DHT22;33529;49.242;8.670;2023-03-21T16:01:15;15.30;99.40
47765;DHT22;33529;49.242;8.670;2023-03-21T16:03:46;15.20;99.90
47765;DHT22;33529;49.242;8.670;2023-03-21T16:11:21;15.20;99.30
47765;DHT22;33529;49.242;8.670;2023-03-21T16:13:50;15.10;99.90
47765;DHT22;33529;49.242;8.670;2023-03-21T16:16:25;15.10;97.90
47765;DHT22;33529;49.242;8.670;2023-03-21T16:18:54;15.10;97.50
47765;DHT22;33529;49.242;8.670;2023-03-21T16:21:24;15.10;98.90
47765;DHT22;33529;49.242;8.670;2023-03-21T16:23:52;15.00;99.90
47765;DHT22;33529;49.242;8.670;2023-03-21T16:26:21;14.90;99.90
47765;DHT22;33529;49.242;8.670;2023-03-21T16:28:49;14.80;99.90
47765;DHT22;33529;49.242;8.670;2023-03-21T16:31:24;14.90;99.90
47765;DHT22;33529;49.242;8.670;2023-03-21T16:33:51;14.70;99.90
47765;DHT22;33529;49.242;8.670;2023-03-21T16:36:39;14.70;99.90
47765;DHT22;33529;49.242;8.670;2023-03-21T16:39:18;14.70;99.90
47765;DHT22;33529;49.242;8.670;2023-03-21T16:41:45;14.70;99.90
47765;DHT22;33529;49.242;8.670;2023-03-21T16:44:13;14.60;99.90
47765;DHT22;33529;49.242;8.670;2023-03-21T16:46:39;14.60;99.90
47765;DHT22;33529;49.242;8.670;2023-03-21T16:49:20;14.40;99.90
47765;DHT22;33529;49.242;8.670;2023-03-21T16:51:47;14.30;99.90
47765;DHT22;33529;49.242;8.670;2023-03-21T16:54:14;14.20;99.90
47765;DHT22;33529;49.242;8.670;2023-03-21T16:56:44;14.20;99.90
47765;DHT22;33529;49.242;8.670;2023-03-21T16:59:13;14.30;99.90
47765;DHT22;33529;49.242;8.670;2023-03-21T17:01:40;14.30;99.90
47765;DHT22;33529;49.242;8.670;2023-03-21T17:04:08;14.10;99.90
47765;DHT22;33529;49.242;8.670;2023-03-21T17:06:40;14.00;99.90
47765;DHT22;33529;49.242;8.670;2023-03-21T17:09:11;14.00;99.90
47765;DHT22;33529;49.242;8.670;2023-03-21T17:11:38;13.90;99.90
47765;DHT22;33529;49.242;8.670;2023-03-21T17:14:08;13.80;99.90
47765;DHT22;33529;49.242;8.670;2023-03-21T17:16:35;13.90;99.90
47765;DHT22;33529;49.242;8.670;2023-03-21T17:21:38;13.70;99.90
47765;DHT22;33529;49.242;8.670;2023-03-21T17:24:05;13.70;99.90
47765;DHT22;33529;49.242;8.670;2023-03-21T17:26:32;13.60;99.90